sensor_id;sensor_type;location;lat;lon;timestamp;P1;durP1;ratioP1;P2;durP2;ratioP2
23163;SDS011;31429;42.674;23.350;2023-05-28T00:00:20;21.67;;;19.57;;
23163;SDS011;31429;42.674;23.350;2023-05-28T00:01:21;24.17;;;21.67;;
23163;SDS011;31429;42.674;23.350;2023-05-28T00:02:23;23.67;;;20.80;;
23163;SDS011;31429;42.674;23.350;2023-05-28T00:03:23;24.23;;;21.73;;
23163;SDS011;31429;42.674;23.350;2023-05-28T00:04:25;24.83;;;22.23;;
23163;SDS011;31429;42.674;23.350;2023-05-28T00:05:25;25.93;;;23.27;;
23163;SDS011;31429;42.674;23.350;2023-05-28T00:06:27;30.53;;;27.33;;
23163;SDS011;31429;42.674;23.350;2023-05-28T00:07:28;23.00;;;20.70;;
23163;SDS011;31429;42.674;23.350;2023-05-28T00:08:29;28.53;;;25.70;;
23163;SDS011;31429;42.674;23.350;2023-05-28T00:09:29;20.70;;;18.60;;
23163;SDS011;31429;42.674;23.350;2023-05-28T00:10:30;21.27;;;19.03;;
23163;SDS011;31429;42.674;23.350;2023-05-28T00:11:31;22.57;;;20.17;;
23163;SDS011;31429;42.674;23.350;2023-05-28T00:12:31;21.47;;;19.37;;
23163;SDS011;31429;42.674;23.350;2023-05-28T00:13:32;26.27;;;19.93;;
23163;SDS011;31429;42.674;23.350;2023-05-28T00:14:32;26.40;;;23.63;;
23163;SDS011;31429;42.674;23.350;2023-05-28T00:15:33;26.40;;;23.37;;
23163;SDS011;31429;42.674;23.350;2023-05-28T00:16:35;21.00;;;18.67;;
23163;SDS011;31429;42.674;23.350;2023-05-28T00:17:37;20.00;;;17.77;;
23163;SDS011;31429;42.674;23.350;2023-05-28T00:18:38;20.07;;;18.17;;
23163;SDS011;31429;42.674;23.350;2023-05-28T00:19:38;19.37;;;17.47;;
23163;SDS011;31429;42.674;23.350;2023-05-28T00:20:39;17.60;;;16.07;;
23163;SDS011;31429;42.674;23.350;2023-05-28T00:21:42;23.00;;;19.87;;
23163;SDS011;31429;42.674;23.350;2023-05-28T00:22:42;23.70;;;21.30;;
23163;SDS011;31429;42.674;23.350;2023-05-28T00:23:44;25.47;;;21.77;;
23163;SDS011;31429;42.674;23.350;2023-05-28T00:24:45;24.33;;;21.93;;
23163;SDS011;31429;42.674;23.350;2023-05-28T00:25:45;20.50;;;18.23;;
23163;SDS011;31429;42.674;23.350;2023-05-28T00:26:46;20.33;;;18.43;;
23163;SDS011;31429;42.674;23.350;2023-05-28T00:27:47;19.97;;;17.87;;
23163;SDS011;31429;42.674;23.350;2023-05-28T00:28:47;19.23;;;17.33;;
23163;SDS011;31429;42.674;23.350;2023-05-28T00:29:48;21.47;;;19.23;;
23163;SDS011;31429;42.674;23.350;2023-05-28T00:30:48;18.97;;;17.03;;
23163;SDS011;31429;42.674;23.350;2023-05-28T00:31:49;20.73;;;17.53;;
23163;SDS011;31429;42.674;23.350;2023-05-28T00:32:51;18.80;;;17.00;;
23163;SDS011;31429;42.674;23.350;2023-05-28T00:33:51;19.80;;;17.77;;
23163;SDS011;31429;42.674;23.350;2023-05-28T00:34:52;21.23;;;17.50;;
23163;SDS011;31429;42.674;23.350;2023-05-28T00:35:53;19.43;;;17.00;;
23163;SDS011;31429;42.674;23.350;2023-05-28T00:36:57;19.83;;;17.80;;
23163;SDS011;31429;42.674;23.350;2023-05-28T00:37:58;19.77;;;17.70;;
23163;SDS011;31429;42.674;23.350;2023-05-28T00:38:58;21.10;;;18.97;;
23163;SDS011;31429;42.674;23.350;2023-05-28T00:40:05;20.00;;;17.90;;
23163;SDS011;31429;42.674;23.350;2023-05-28T00:41:08;18.90;;;16.93;;
23163;SDS011;31429;42.674;23.350;2023-05-28T00:42:08;19.87;;;17.77;;
23163;SDS011;31429;42.674;23.350;2023-05-28T00:43:10;21.53;;;19.27;;
23163;SDS011;31429;42.674;23.350;2023-05-28T00:44:11;22.73;;;17.77;;
23163;SDS011;31429;42.674;23.350;2023-05-28T00:45:12;28.50;;;20.00;;
23163;SDS011;31429;42.674;23.350;2023-05-28T00:46:14;28.37;;;25.27;;
23163;SDS011;31429;42.674;23.350;2023-05-28T00:47:18;24.20;;;21.70;;
23163;SDS011;31429;42.674;23.350;2023-05-28T00:48:18;24.83;;;22.13;;
23163;SDS011;31429;42.674;23.350;2023-05-28T00:49:19;20.67;;;16.10;;
23163;SDS011;31429;42.674;23.350;2023-05-28T00:50:21;17.77;;;15.93;;
23163;SDS011;31429;42.674;23.350;2023-05-28T00:51:22;18.03;;;15.63;;
23163;SDS011;31429;42.674;23.350;2023-05-28T00:52:25;17.60;;;15.87;;
23163;SDS011;31429;42.674;23.350;2023-05-28T00:53:26;16.83;;;15.23;;
23163;SDS011;31429;42.674;23.350;2023-05-28T00:54:27;17.87;;;15.97;;
23163;SDS011;31429;42.674;23.350;2023-05-28T00:55:29;17.80;;;16.00;;
23163;SDS011;31429;42.674;23.350;2023-05-28T00:56:30;19.77;;;16.83;;
23163;SDS011;31429;42.674;23.350;2023-05-28T00:57:31;17.27;;;15.63;;
23163;SDS011;31429;42.674;23.350;2023-05-28T00:58:32;18.13;;;15.97;;
23163;SDS011;31429;42.674;23.350;2023-05-28T00:59:35;16.90;;;15.20;;
23163;SDS011;31429;42.674;23.350;2023-05-28T01:00:36;18.17;;;16.33;;
23163;SDS011;31429;42.674;23.350;2023-05-28T01:01:37;17.10;;;15.40;;
23163;SDS011;31429;42.674;23.350;2023-05-28T01:02:39;20.87;;;18.73;;
23163;SDS011;31429;42.674;23.350;2023-05-28T01:03:40;18.30;;;16.33;;
23163;SDS011;31429;42.674;23.350;2023-05-28T01:04:41;19.93;;;17.90;;
23163;SDS011;31429;42.674;23.350;2023-05-28T01:05:42;20.23;;;18.17;;
23163;SDS011;31429;42.674;23.350;2023-05-28T01:06:43;19.33;;;17.33;;
23163;SDS011;31429;42.674;23.350;2023-05-28T01:07:45;17.53;;;15.77;;
23163;SDS011;31429;42.674;23.350;2023-05-28T01:08:46;18.17;;;16.30;;
23163;SDS011;31429;42.674;23.350;2023-05-28T01:09:47;20.50;;;15.20;;
23163;SDS011;31429;42.674;23.350;2023-05-28T01:10:48;17.67;;;15.90;;
23163;SDS011;31429;42.674;23.350;2023-05-28T01:11:49;17.57;;;15.77;;
23163;SDS011;31429;42.674;23.350;2023-05-28T01:12:52;17.47;;;15.73;;
23163;SDS011;31429;42.674;23.350;2023-05-28T01:13:54;17.10;;;15.30;;
23163;SDS011;31429;42.674;23.350;2023-05-28T01:14:55;18.40;;;16.43;;
23163;SDS011;31429;42.674;23.350;2023-05-28T01:15:56;18.17;;;16.23;;
23163;SDS011;31429;42.674;23.350;2023-05-28T01:16:57;17.83;;;16.03;;
23163;SDS011;31429;42.674;23.350;2023-05-28T01:17:59;19.53;;;17.43;;
23163;SDS011;31429;42.674;23.350;2023-05-28T01:19:00;19.13;;;16.43;;
23163;SDS011;31429;42.674;23.350;2023-05-28T01:20:08;21.20;;;19.10;;
23163;SDS011;31429;42.674;23.350;2023-05-28T01:21:13;19.77;;;17.67;;
23163;SDS011;31429;42.674;23.350;2023-05-28T01:22:15;20.63;;;17.80;;
23163;SDS011;31429;42.674;23.350;2023-05-28T01:23:19;20.70;;;18.57;;
23163;SDS011;31429;42.674;23.350;2023-05-28T01:24:25;17.27;;;15.67;;
23163;SDS011;31429;42.674;23.350;2023-05-28T01:25:28;15.87;;;14.47;;
23163;SDS011;31429;42.674;23.350;2023-05-28T01:26:30;16.53;;;14.83;;
23163;SDS011;31429;42.674;23.350;2023-05-28T01:27:31;15.67;;;14.20;;
23163;SDS011;31429;42.674;23.350;2023-05-28T01:28:32;16.13;;;14.53;;
23163;SDS011;31429;42.674;23.350;2023-05-28T01:29:33;15.97;;;14.40;;
23163;SDS011;31429;42.674;23.350;2023-05-28T01:30:33;16.37;;;14.77;;
23163;SDS011;31429;42.674;23.350;2023-05-28T01:31:34;17.57;;;14.97;;
23163;SDS011;31429;42.674;23.350;2023-05-28T01:32:35;17.63;;;13.83;;
23163;SDS011;31429;42.674;23.350;2023-05-28T01:33:36;14.67;;;13.23;;
23163;SDS011;31429;42.674;23.350;2023-05-28T01:34:38;15.30;;;13.87;;
23163;SDS011;31429;42.674;23.350;2023-05-28T01:35:39;15.40;;;13.90;;
23163;SDS011;31429;42.674;23.350;2023-05-28T01:36:42;16.27;;;14.53;;
23163;SDS011;31429;42.674;23.350;2023-05-28T01:37:46;15.00;;;13.47;;
23163;SDS011;31429;42.674;23.350;2023-05-28T01:38:50;15.63;;;14.13;;
23163;SDS011;31429;42.674;23.350;2023-05-28T01:39:55;15.10;;;13.73;;
23163;SDS011;31429;42.674;23.350;2023-05-28T01:40:57;16.03;;;13.10;;
23163;SDS011;31429;42.674;23.350;2023-05-28T01:41:58;15.57;;;14.07;;
23163;SDS011;31429;42.674;23.350;2023-05-28T01:42:59;20.00;;;18.03;;
23163;SDS011;31429;42.674;23.350;2023-05-28T01:44:01;18.67;;;16.70;;
23163;SDS011;31429;42.674;23.350;2023-05-28T01:45:03;18.07;;;15.03;;
23163;SDS011;31429;42.674;23.350;2023-05-28T01:46:06;14.57;;;13.27;;
23163;SDS011;31429;42.674;23.350;2023-05-28T01:47:07;14.33;;;12.93;;
23163;SDS011;31429;42.674;23.350;2023-05-28T01:48:09;15.47;;;13.97;;
23163;SDS011;31429;42.674;23.350;2023-05-28T01:49:11;17.20;;;13.77;;
23163;SDS011;31429;42.674;23.350;2023-05-28T01:50:12;14.40;;;13.03;;
23163;SDS011;31429;42.674;23.350;2023-05-28T01:51:15;15.47;;;13.97;;
23163;SDS011;31429;42.674;23.350;2023-05-28T01:52:16;14.00;;;12.57;;
23163;SDS011;31429;42.674;23.350;2023-05-28T01:53:16;13.90;;;12.60;;
23163;SDS011;31429;42.674;23.350;2023-05-28T01:54:17;14.87;;;12.87;;
23163;SDS011;31429;42.674;23.350;2023-05-28T01:55:19;15.07;;;13.60;;
23163;SDS011;31429;42.674;23.350;2023-05-28T01:56:20;13.47;;;12.27;;
23163;SDS011;31429;42.674;23.350;2023-05-28T01:57:20;13.67;;;12.37;;
23163;SDS011;31429;42.674;23.350;2023-05-28T01:58:21;13.77;;;12.37;;
23163;SDS011;31429;42.674;23.350;2023-05-28T01:59:22;13.87;;;12.57;;
23163;SDS011;31429;42.674;23.350;2023-05-28T02:00:22;14.33;;;12.80;;
23163;SDS011;31429;42.674;23.350;2023-05-28T02:01:24;13.03;;;11.77;;
23163;SDS011;31429;42.674;23.350;2023-05-28T02:02:29;14.93;;;13.60;;
23163;SDS011;31429;42.674;23.350;2023-05-28T02:03:29;13.70;;;12.07;;
23163;SDS011;31429;42.674;23.350;2023-05-28T02:04:30;14.53;;;13.13;;
23163;SDS011;31429;42.674;23.350;2023-05-28T02:05:30;13.20;;;12.00;;
23163;SDS011;31429;42.674;23.350;2023-05-28T02:06:32;13.57;;;12.13;;
23163;SDS011;31429;42.674;23.350;2023-05-28T02:07:33;15.53;;;14.03;;
23163;SDS011;31429;42.674;23.350;2023-05-28T02:08:34;13.30;;;11.90;;
23163;SDS011;31429;42.674;23.350;2023-05-28T02:09:35;14.37;;;12.97;;
23163;SDS011;31429;42.674;23.350;2023-05-28T02:10:37;13.67;;;12.47;;
23163;SDS011;31429;42.674;23.350;2023-05-28T02:11:37;18.20;;;14.00;;
23163;SDS011;31429;42.674;23.350;2023-05-28T02:12:38;13.97;;;12.73;;
23163;SDS011;31429;42.674;23.350;2023-05-28T02:13:39;15.33;;;13.83;;
23163;SDS011;31429;42.674;23.350;2023-05-28T02:14:40;15.20;;;13.40;;
23163;SDS011;31429;42.674;23.350;2023-05-28T02:15:42;14.40;;;12.90;;
23163;SDS011;31429;42.674;23.350;2023-05-28T02:16:45;15.03;;;13.53;;
23163;SDS011;31429;42.674;23.350;2023-05-28T02:17:49;13.27;;;11.97;;
23163;SDS011;31429;42.674;23.350;2023-05-28T02:18:51;13.40;;;12.10;;
23163;SDS011;31429;42.674;23.350;2023-05-28T02:19:52;13.80;;;12.40;;
23163;SDS011;31429;42.674;23.350;2023-05-28T02:20:53;14.03;;;12.60;;
23163;SDS011;31429;42.674;23.350;2023-05-28T02:21:53;14.13;;;12.80;;
23163;SDS011;31429;42.674;23.350;2023-05-28T02:22:56;14.73;;;13.23;;
23163;SDS011;31429;42.674;23.350;2023-05-28T02:23:56;14.63;;;13.23;;
23163;SDS011;31429;42.674;23.350;2023-05-28T02:24:57;15.77;;;14.27;;
23163;SDS011;31429;42.674;23.350;2023-05-28T02:25:59;16.27;;;14.67;;
23163;SDS011;31429;42.674;23.350;2023-05-28T02:27:01;16.63;;;14.93;;
23163;SDS011;31429;42.674;23.350;2023-05-28T02:28:03;16.07;;;14.37;;
23163;SDS011;31429;42.674;23.350;2023-05-28T02:29:04;15.53;;;13.80;;
23163;SDS011;31429;42.674;23.350;2023-05-28T02:30:06;18.47;;;13.60;;
23163;SDS011;31429;42.674;23.350;2023-05-28T02:31:07;14.20;;;12.97;;
23163;SDS011;31429;42.674;23.350;2023-05-28T02:32:08;15.77;;;14.23;;
23163;SDS011;31429;42.674;23.350;2023-05-28T02:33:08;15.40;;;13.97;;
23163;SDS011;31429;42.674;23.350;2023-05-28T02:34:09;18.93;;;13.70;;
23163;SDS011;31429;42.674;23.350;2023-05-28T02:35:10;14.40;;;12.90;;
23163;SDS011;31429;42.674;23.350;2023-05-28T02:36:11;14.17;;;12.67;;
23163;SDS011;31429;42.674;23.350;2023-05-28T02:37:14;14.37;;;12.97;;
23163;SDS011;31429;42.674;23.350;2023-05-28T02:38:15;14.83;;;13.37;;
23163;SDS011;31429;42.674;23.350;2023-05-28T02:39:15;14.67;;;13.37;;
23163;SDS011;31429;42.674;23.350;2023-05-28T02:40:16;13.73;;;12.53;;
23163;SDS011;31429;42.674;23.350;2023-05-28T02:41:19;14.37;;;13.03;;
23163;SDS011;31429;42.674;23.350;2023-05-28T02:42:20;13.70;;;12.50;;
23163;SDS011;31429;42.674;23.350;2023-05-28T02:43:20;13.07;;;11.77;;
23163;SDS011;31429;42.674;23.350;2023-05-28T02:44:21;14.20;;;12.90;;
23163;SDS011;31429;42.674;23.350;2023-05-28T02:45:22;13.33;;;11.93;;
23163;SDS011;31429;42.674;23.350;2023-05-28T02:46:22;14.07;;;12.67;;
23163;SDS011;31429;42.674;23.350;2023-05-28T02:47:23;14.23;;;12.93;;
23163;SDS011;31429;42.674;23.350;2023-05-28T02:48:23;15.00;;;13.63;;
23163;SDS011;31429;42.674;23.350;2023-05-28T02:49:25;14.90;;;13.17;;
23163;SDS011;31429;42.674;23.350;2023-05-28T02:50:25;15.13;;;13.63;;
23163;SDS011;31429;42.674;23.350;2023-05-28T02:51:26;15.63;;;14.13;;
23163;SDS011;31429;42.674;23.350;2023-05-28T02:52:26;15.40;;;14.00;;
23163;SDS011;31429;42.674;23.350;2023-05-28T02:53:28;14.43;;;13.00;;
23163;SDS011;31429;42.674;23.350;2023-05-28T02:54:33;14.70;;;12.80;;
23163;SDS011;31429;42.674;23.350;2023-05-28T02:55:33;14.20;;;12.80;;
23163;SDS011;31429;42.674;23.350;2023-05-28T02:56:36;15.07;;;13.47;;
23163;SDS011;31429;42.674;23.350;2023-05-28T02:57:36;14.80;;;13.40;;
23163;SDS011;31429;42.674;23.350;2023-05-28T02:58:37;14.03;;;12.67;;
23163;SDS011;31429;42.674;23.350;2023-05-28T02:59:37;14.53;;;13.13;;
23163;SDS011;31429;42.674;23.350;2023-05-28T03:00:38;13.87;;;12.57;;
23163;SDS011;31429;42.674;23.350;2023-05-28T03:01:40;15.37;;;13.87;;
23163;SDS011;31429;42.674;23.350;2023-05-28T03:02:40;15.20;;;13.60;;
23163;SDS011;31429;42.674;23.350;2023-05-28T03:03:41;14.70;;;13.30;;
23163;SDS011;31429;42.674;23.350;2023-05-28T03:04:41;16.43;;;14.83;;
23163;SDS011;31429;42.674;23.350;2023-05-28T03:05:43;17.13;;;15.00;;
23163;SDS011;31429;42.674;23.350;2023-05-28T03:06:43;16.73;;;14.97;;
23163;SDS011;31429;42.674;23.350;2023-05-28T03:07:44;16.60;;;15.03;;
23163;SDS011;31429;42.674;23.350;2023-05-28T03:08:44;17.07;;;15.27;;
23163;SDS011;31429;42.674;23.350;2023-05-28T03:09:45;16.13;;;14.67;;
23163;SDS011;31429;42.674;23.350;2023-05-28T03:10:46;14.40;;;13.10;;
23163;SDS011;31429;42.674;23.350;2023-05-28T03:11:48;15.87;;;14.27;;
23163;SDS011;31429;42.674;23.350;2023-05-28T03:12:48;14.57;;;13.17;;
23163;SDS011;31429;42.674;23.350;2023-05-28T03:13:49;16.10;;;14.63;;
23163;SDS011;31429;42.674;23.350;2023-05-28T03:14:50;14.63;;;13.10;;
23163;SDS011;31429;42.674;23.350;2023-05-28T03:15:50;13.90;;;12.60;;
23163;SDS011;31429;42.674;23.350;2023-05-28T03:16:51;14.20;;;12.80;;
23163;SDS011;31429;42.674;23.350;2023-05-28T03:17:52;14.43;;;13.07;;
23163;SDS011;31429;42.674;23.350;2023-05-28T03:18:52;16.70;;;14.90;;
23163;SDS011;31429;42.674;23.350;2023-05-28T03:19:53;14.73;;;13.33;;
23163;SDS011;31429;42.674;23.350;2023-05-28T03:20:54;13.80;;;12.50;;
23163;SDS011;31429;42.674;23.350;2023-05-28T03:21:54;14.87;;;13.47;;
23163;SDS011;31429;42.674;23.350;2023-05-28T03:22:56;13.63;;;12.40;;
23163;SDS011;31429;42.674;23.350;2023-05-28T03:23:57;13.07;;;11.87;;
23163;SDS011;31429;42.674;23.350;2023-05-28T03:24:57;13.97;;;12.77;;
23163;SDS011;31429;42.674;23.350;2023-05-28T03:25:58;15.07;;;13.17;;
23163;SDS011;31429;42.674;23.350;2023-05-28T03:27:00;13.30;;;12.00;;
23163;SDS011;31429;42.674;23.350;2023-05-28T03:28:02;13.77;;;12.43;;
23163;SDS011;31429;42.674;23.350;2023-05-28T03:29:02;14.57;;;13.17;;
23163;SDS011;31429;42.674;23.350;2023-05-28T03:30:03;14.93;;;13.40;;
23163;SDS011;31429;42.674;23.350;2023-05-28T03:31:05;14.00;;;12.70;;
23163;SDS011;31429;42.674;23.350;2023-05-28T03:32:06;17.47;;;13.83;;
23163;SDS011;31429;42.674;23.350;2023-05-28T03:33:06;14.67;;;13.37;;
23163;SDS011;31429;42.674;23.350;2023-05-28T03:34:07;15.27;;;13.67;;
23163;SDS011;31429;42.674;23.350;2023-05-28T03:35:08;14.37;;;13.07;;
23163;SDS011;31429;42.674;23.350;2023-05-28T03:36:09;14.63;;;13.33;;
23163;SDS011;31429;42.674;23.350;2023-05-28T03:37:10;15.40;;;13.90;;
23163;SDS011;31429;42.674;23.350;2023-05-28T03:38:11;14.83;;;13.17;;
23163;SDS011;31429;42.674;23.350;2023-05-28T03:39:11;18.73;;;13.27;;
23163;SDS011;31429;42.674;23.350;2023-05-28T03:40:12;13.90;;;12.50;;
23163;SDS011;31429;42.674;23.350;2023-05-28T03:41:13;13.37;;;12.20;;
23163;SDS011;31429;42.674;23.350;2023-05-28T03:42:15;14.17;;;12.37;;
23163;SDS011;31429;42.674;23.350;2023-05-28T03:43:16;14.20;;;12.43;;
23163;SDS011;31429;42.674;23.350;2023-05-28T03:44:16;13.80;;;12.53;;
23163;SDS011;31429;42.674;23.350;2023-05-28T03:45:17;13.53;;;12.13;;
23163;SDS011;31429;42.674;23.350;2023-05-28T03:46:18;14.57;;;13.20;;
23163;SDS011;31429;42.674;23.350;2023-05-28T03:47:19;14.17;;;12.97;;
23163;SDS011;31429;42.674;23.350;2023-05-28T03:48:19;14.90;;;13.40;;
23163;SDS011;31429;42.674;23.350;2023-05-28T03:49:20;14.93;;;13.57;;
23163;SDS011;31429;42.674;23.350;2023-05-28T03:50:21;13.93;;;12.63;;
23163;SDS011;31429;42.674;23.350;2023-05-28T03:51:21;15.50;;;12.93;;
23163;SDS011;31429;42.674;23.350;2023-05-28T03:52:23;14.60;;;13.03;;
23163;SDS011;31429;42.674;23.350;2023-05-28T03:53:24;14.27;;;12.77;;
23163;SDS011;31429;42.674;23.350;2023-05-28T03:54:25;15.23;;;13.67;;
23163;SDS011;31429;42.674;23.350;2023-05-28T03:55:26;15.47;;;14.00;;
23163;SDS011;31429;42.674;23.350;2023-05-28T03:56:26;15.10;;;13.67;;
23163;SDS011;31429;42.674;23.350;2023-05-28T03:57:28;15.40;;;13.47;;
23163;SDS011;31429;42.674;23.350;2023-05-28T03:58:29;14.90;;;13.40;;
23163;SDS011;31429;42.674;23.350;2023-05-28T03:59:30;14.90;;;13.27;;
23163;SDS011;31429;42.674;23.350;2023-05-28T04:00:31;14.37;;;13.07;;
23163;SDS011;31429;42.674;23.350;2023-05-28T04:01:32;14.20;;;12.73;;
23163;SDS011;31429;42.674;23.350;2023-05-28T04:02:34;13.67;;;12.40;;
23163;SDS011;31429;42.674;23.350;2023-05-28T04:03:35;13.43;;;12.13;;
23163;SDS011;31429;42.674;23.350;2023-05-28T04:04:35;12.23;;;11.13;;
23163;SDS011;31429;42.674;23.350;2023-05-28T04:05:36;12.17;;;10.83;;
23163;SDS011;31429;42.674;23.350;2023-05-28T04:06:36;13.40;;;12.10;;
23163;SDS011;31429;42.674;23.350;2023-05-28T04:07:37;14.10;;;12.90;;
23163;SDS011;31429;42.674;23.350;2023-05-28T04:08:38;13.83;;;12.43;;
23163;SDS011;31429;42.674;23.350;2023-05-28T04:09:38;15.13;;;13.73;;
23163;SDS011;31429;42.674;23.350;2023-05-28T04:10:40;19.73;;;12.70;;
23163;SDS011;31429;42.674;23.350;2023-05-28T04:11:41;14.33;;;13.03;;
23163;SDS011;31429;42.674;23.350;2023-05-28T04:12:43;13.93;;;12.73;;
23163;SDS011;31429;42.674;23.350;2023-05-28T04:13:43;13.33;;;12.13;;
23163;SDS011;31429;42.674;23.350;2023-05-28T04:14:44;15.07;;;13.57;;
23163;SDS011;31429;42.674;23.350;2023-05-28T04:15:44;14.10;;;12.80;;
23163;SDS011;31429;42.674;23.350;2023-05-28T04:16:45;15.33;;;13.83;;
23163;SDS011;31429;42.674;23.350;2023-05-28T04:17:46;15.93;;;14.33;;
23163;SDS011;31429;42.674;23.350;2023-05-28T04:18:46;16.60;;;14.93;;
23163;SDS011;31429;42.674;23.350;2023-05-28T04:19:47;14.20;;;12.80;;
23163;SDS011;31429;42.674;23.350;2023-05-28T04:20:48;15.10;;;13.70;;
23163;SDS011;31429;42.674;23.350;2023-05-28T04:21:49;14.57;;;13.27;;
23163;SDS011;31429;42.674;23.350;2023-05-28T04:22:50;16.93;;;14.20;;
23163;SDS011;31429;42.674;23.350;2023-05-28T04:23:50;14.53;;;13.17;;
23163;SDS011;31429;42.674;23.350;2023-05-28T04:24:51;15.07;;;13.57;;
23163;SDS011;31429;42.674;23.350;2023-05-28T04:25:55;15.23;;;13.37;;
23163;SDS011;31429;42.674;23.350;2023-05-28T04:26:56;15.60;;;14.10;;
23163;SDS011;31429;42.674;23.350;2023-05-28T04:28:01;16.20;;;14.50;;
23163;SDS011;31429;42.674;23.350;2023-05-28T04:29:01;22.10;;;19.07;;
23163;SDS011;31429;42.674;23.350;2023-05-28T04:30:02;23.70;;;20.83;;
23163;SDS011;31429;42.674;23.350;2023-05-28T04:31:03;25.43;;;21.37;;
23163;SDS011;31429;42.674;23.350;2023-05-28T04:32:04;209.87;;;170.47;;
23163;SDS011;31429;42.674;23.350;2023-05-28T04:33:09;293.47;;;247.47;;
23163;SDS011;31429;42.674;23.350;2023-05-28T04:34:10;279.53;;;235.27;;
23163;SDS011;31429;42.674;23.350;2023-05-28T04:35:11;26.87;;;24.07;;
23163;SDS011;31429;42.674;23.350;2023-05-28T04:36:12;28.23;;;25.20;;
23163;SDS011;31429;42.674;23.350;2023-05-28T04:37:13;45.67;;;39.30;;
23163;SDS011;31429;42.674;23.350;2023-05-28T04:38:14;18.50;;;16.50;;
23163;SDS011;31429;42.674;23.350;2023-05-28T04:39:15;66.87;;;54.63;;
23163;SDS011;31429;42.674;23.350;2023-05-28T04:40:16;32.90;;;26.20;;
23163;SDS011;31429;42.674;23.350;2023-05-28T04:41:17;18.17;;;16.27;;
23163;SDS011;31429;42.674;23.350;2023-05-28T04:42:19;36.57;;;31.30;;
23163;SDS011;31429;42.674;23.350;2023-05-28T04:43:21;39.83;;;32.60;;
23163;SDS011;31429;42.674;23.350;2023-05-28T04:44:21;21.30;;;18.67;;
23163;SDS011;31429;42.674;23.350;2023-05-28T04:45:25;18.77;;;17.07;;
23163;SDS011;31429;42.674;23.350;2023-05-28T04:46:28;21.67;;;18.33;;
23163;SDS011;31429;42.674;23.350;2023-05-28T04:47:29;17.87;;;15.87;;
23163;SDS011;31429;42.674;23.350;2023-05-28T04:48:30;19.63;;;17.77;;
23163;SDS011;31429;42.674;23.350;2023-05-28T04:49:35;27.80;;;24.87;;
23163;SDS011;31429;42.674;23.350;2023-05-28T04:50:36;18.40;;;16.23;;
23163;SDS011;31429;42.674;23.350;2023-05-28T04:51:37;20.53;;;18.40;;
23163;SDS011;31429;42.674;23.350;2023-05-28T04:52:37;20.40;;;18.40;;
23163;SDS011;31429;42.674;23.350;2023-05-28T04:53:38;17.53;;;15.83;;
23163;SDS011;31429;42.674;23.350;2023-05-28T04:54:38;16.57;;;14.33;;
23163;SDS011;31429;42.674;23.350;2023-05-28T04:55:39;16.60;;;15.00;;
23163;SDS011;31429;42.674;23.350;2023-05-28T04:56:41;16.07;;;14.47;;
23163;SDS011;31429;42.674;23.350;2023-05-28T04:57:42;15.77;;;14.07;;
23163;SDS011;31429;42.674;23.350;2023-05-28T04:58:44;20.33;;;18.30;;
23163;SDS011;31429;42.674;23.350;2023-05-28T04:59:46;20.03;;;18.03;;
23163;SDS011;31429;42.674;23.350;2023-05-28T05:00:48;17.80;;;16.00;;
23163;SDS011;31429;42.674;23.350;2023-05-28T05:01:48;18.83;;;16.90;;
23163;SDS011;31429;42.674;23.350;2023-05-28T05:02:49;22.70;;;19.87;;
23163;SDS011;31429;42.674;23.350;2023-05-28T05:03:51;17.10;;;15.40;;
23163;SDS011;31429;42.674;23.350;2023-05-28T05:04:51;15.23;;;13.77;;
23163;SDS011;31429;42.674;23.350;2023-05-28T05:05:52;18.20;;;16.30;;
23163;SDS011;31429;42.674;23.350;2023-05-28T05:06:52;22.67;;;19.50;;
23163;SDS011;31429;42.674;23.350;2023-05-28T05:07:53;21.87;;;19.47;;
23163;SDS011;31429;42.674;23.350;2023-05-28T05:08:54;20.67;;;18.33;;
23163;SDS011;31429;42.674;23.350;2023-05-28T05:09:54;19.83;;;17.90;;
23163;SDS011;31429;42.674;23.350;2023-05-28T05:10:55;20.67;;;18.60;;
23163;SDS011;31429;42.674;23.350;2023-05-28T05:11:56;17.83;;;15.97;;
23163;SDS011;31429;42.674;23.350;2023-05-28T05:12:56;17.63;;;15.83;;
23163;SDS011;31429;42.674;23.350;2023-05-28T05:13:58;21.27;;;19.13;;
23163;SDS011;31429;42.674;23.350;2023-05-28T05:14:59;17.67;;;16.07;;
23163;SDS011;31429;42.674;23.350;2023-05-28T05:16:00;31.63;;;28.27;;
23163;SDS011;31429;42.674;23.350;2023-05-28T05:17:00;32.53;;;28.63;;
23163;SDS011;31429;42.674;23.350;2023-05-28T05:18:02;21.63;;;19.37;;
23163;SDS011;31429;42.674;23.350;2023-05-28T05:19:03;42.23;;;35.93;;
23163;SDS011;31429;42.674;23.350;2023-05-28T05:20:04;23.50;;;21.13;;
23163;SDS011;31429;42.674;23.350;2023-05-28T05:21:06;17.97;;;16.23;;
23163;SDS011;31429;42.674;23.350;2023-05-28T05:22:10;17.67;;;14.80;;
23163;SDS011;31429;42.674;23.350;2023-05-28T05:23:10;16.23;;;14.73;;
23163;SDS011;31429;42.674;23.350;2023-05-28T05:24:11;16.93;;;15.30;;
23163;SDS011;31429;42.674;23.350;2023-05-28T05:25:12;16.43;;;14.83;;
23163;SDS011;31429;42.674;23.350;2023-05-28T05:26:12;17.70;;;15.70;;
23163;SDS011;31429;42.674;23.350;2023-05-28T05:27:13;18.77;;;15.23;;
23163;SDS011;31429;42.674;23.350;2023-05-28T05:28:14;16.37;;;14.63;;
23163;SDS011;31429;42.674;23.350;2023-05-28T05:29:16;16.83;;;15.33;;
23163;SDS011;31429;42.674;23.350;2023-05-28T05:30:16;15.47;;;14.07;;
23163;SDS011;31429;42.674;23.350;2023-05-28T05:31:17;16.63;;;15.03;;
23163;SDS011;31429;42.674;23.350;2023-05-28T05:32:18;19.00;;;14.33;;
23163;SDS011;31429;42.674;23.350;2023-05-28T05:33:18;17.60;;;14.43;;
23163;SDS011;31429;42.674;23.350;2023-05-28T05:34:19;17.50;;;14.67;;
23163;SDS011;31429;42.674;23.350;2023-05-28T05:35:20;16.57;;;14.13;;
23163;SDS011;31429;42.674;23.350;2023-05-28T05:36:20;16.70;;;15.10;;
23163;SDS011;31429;42.674;23.350;2023-05-28T05:37:21;19.60;;;17.40;;
23163;SDS011;31429;42.674;23.350;2023-05-28T05:38:23;16.27;;;14.77;;
23163;SDS011;31429;42.674;23.350;2023-05-28T05:39:23;17.80;;;15.70;;
23163;SDS011;31429;42.674;23.350;2023-05-28T05:40:24;20.60;;;18.50;;
23163;SDS011;31429;42.674;23.350;2023-05-28T05:41:25;17.63;;;14.37;;
23163;SDS011;31429;42.674;23.350;2023-05-28T05:42:26;18.13;;;14.87;;
23163;SDS011;31429;42.674;23.350;2023-05-28T05:43:27;16.33;;;14.73;;
23163;SDS011;31429;42.674;23.350;2023-05-28T05:44:29;15.73;;;14.23;;
23163;SDS011;31429;42.674;23.350;2023-05-28T05:45:30;15.93;;;14.40;;
23163;SDS011;31429;42.674;23.350;2023-05-28T05:46:30;16.40;;;14.80;;
23163;SDS011;31429;42.674;23.350;2023-05-28T05:47:31;15.97;;;14.37;;
23163;SDS011;31429;42.674;23.350;2023-05-28T05:48:31;16.00;;;14.07;;
23163;SDS011;31429;42.674;23.350;2023-05-28T05:49:32;16.70;;;15.23;;
23163;SDS011;31429;42.674;23.350;2023-05-28T05:50:33;16.03;;;14.37;;
23163;SDS011;31429;42.674;23.350;2023-05-28T05:51:47;17.77;;;15.97;;
23163;SDS011;31429;42.674;23.350;2023-05-28T05:52:48;17.67;;;15.87;;